Time;durP1;ratioP1;P1;durP2;ratioP2;P2;SDS_P1;SDS_P2;PMS_P1;PMS_P2;Temp;Humidity;BMP_temperature;BMP_pressure;BME280_temperature;BME280_humidity;BME280_pressure;Samples;Min_cycle;Max_cycle;Signal;HPM_P1;HPM_P2
2023/03/27 00:00:52;;;;;;;0.60;0.60;;;8.20;99.90;;;;;;4954696;28;20024;-94
2023/03/27 00:03:19;;;;;;;0.85;0.60;;;8.50;99.90;;;;;;4954881;28;20070;-93
2023/03/27 00:05:45;;;;;;;1.52;0.80;;;8.30;99.90;;;;;;4954923;28;20493;-94
2023/03/27 00:08:12;;;;;;;1.00;0.70;;;8.10;99.90;;;;;;4954762;28;20481;-94
2023/03/27 00:10:38;;;;;;;1.20;0.75;;;8.30;99.90;;;;;;4954595;28;20518;-95
2023/03/27 00:13:05;;;;;;;1.63;0.90;;;8.40;99.90;;;;;;4954121;28;20031;-94
2023/03/27 00:15:33;;;;;;;1.20;1.10;;;8.20;99.90;;;;;;4954566;28;20039;-94
2023/03/27 00:18:02;;;;;;;1.42;0.90;;;8.10;99.90;;;;;;4954525;28;20106;-94
2023/03/27 00:20:29;;;;;;;1.00;0.85;;;8.40;99.90;;;;;;4954627;28;20062;-94
2023/03/27 00:22:55;;;;;;;0.88;0.88;;;8.30;99.90;;;;;;4954479;28;20074;-94
2023/03/27 00:25:26;;;;;;;0.73;0.73;;;8.50;99.90;;;;;;4953182;28;20513;-94
2023/03/27 00:27:57;;;;;;;1.35;0.90;;;8.50;99.90;;;;;;4934756;29;20039;-94
2023/03/27 00:30:25;;;;;;;1.35;0.95;;;8.80;99.90;;;;;;4935240;29;20036;-94
2023/03/27 00:32:53;;;;;;;1.23;0.75;;;8.90;99.90;;;;;;4935105;29;20043;-94
2023/03/27 00:35:18;;;;;;;0.70;0.63;;;8.60;99.90;;;;;;4935073;29;20042;-95
2023/03/27 00:37:44;;;;;;;1.20;0.80;;;8.50;99.90;;;;;;4935498;29;20032;-94
2023/03/27 00:40:19;;;;;;;1.17;0.60;;;8.50;99.90;;;;;;4935098;29;20125;-94
2023/03/27 00:42:47;;;;;;;1.63;0.70;;;8.60;99.90;;;;;;4934898;29;20108;-95
2023/03/27 00:45:21;;;;;;;0.85;0.80;;;8.40;99.90;;;;;;4941290;29;20046;-95
2023/03/27 00:47:53;;;;;;;1.50;0.80;;;8.50;99.90;;;;;;4953678;28;20027;-94
2023/03/27 00:50:23;;;;;;;0.75;0.50;;;8.60;99.90;;;;;;4953796;28;20036;-94
2023/03/27 00:52:55;;;;;;;0.93;0.60;;;8.70;99.90;;;;;;4953713;28;20049;-94
2023/03/27 00:55:22;;;;;;;2.90;0.70;;;8.60;99.90;;;;;;4953559;28;20032;-94
2023/03/27 00:58:22;;;;;;;1.25;0.50;;;8.70;99.90;;;;;;4953705;28;20098;-93
2023/03/27 01:00:51;;;;;;;1.33;1.00;;;8.70;99.90;;;;;;4952233;28;20039;-85
2023/03/27 01:03:19;;;;;;;2.83;1.30;;;8.50;99.90;;;;;;4950686;28;20036;-84
2023/03/27 01:05:46;;;;;;;1.75;0.73;;;8.40;99.90;;;;;;4952262;28;20055;-84
2023/03/27 01:08:13;;;;;;;2.08;0.95;;;8.50;99.90;;;;;;4952335;28;20190;-85
2023/03/27 01:10:57;;;;;;;0.93;0.70;;;8.50;99.90;;;;;;4951849;28;20508;-85
2023/03/27 01:13:32;;;;;;;1.02;0.80;;;8.40;99.90;;;;;;4950747;29;20467;-85
2023/03/27 01:16:08;;;;;;;0.68;0.57;;;8.40;99.90;;;;;;4950773;28;20038;-85
2023/03/27 01:18:52;;;;;;;0.90;0.60;;;8.20;99.90;;;;;;4952038;28;20027;-84
2023/03/27 01:21:29;;;;;;;0.80;0.50;;;8.30;99.90;;;;;;4951886;28;20098;-85
2023/03/27 01:24:16;;;;;;;0.60;0.60;;;8.30;99.90;;;;;;4952038;28;20525;-85
2023/03/27 01:27:00;;;;;;;0.70;0.57;;;8.00;99.90;;;;;;4940555;28;20056;-85
2023/03/27 01:29:58;;;;;;;0.90;0.50;;;8.00;99.90;;;;;;4931444;29;20035;-85
2023/03/27 01:32:33;;;;;;;0.70;0.60;;;7.80;99.90;;;;;;4932721;29;20031;-85
2023/03/27 01:35:27;;;;;;;0.80;0.70;;;7.90;99.90;;;;;;4932626;29;20038;-85
2023/03/27 01:38:30;;;;;;;1.67;0.82;;;8.00;99.90;;;;;;4932625;29;20571;-84
2023/03/27 01:41:05;;;;;;;1.48;0.85;;;8.40;99.90;;;;;;4932743;29;20482;-85
2023/03/27 01:43:43;;;;;;;0.75;0.60;;;8.00;99.90;;;;;;4932525;29;20074;-84
2023/03/27 01:46:20;;;;;;;0.60;0.60;;;8.10;99.90;;;;;;4946849;29;20027;-85
2023/03/27 01:49:11;;;;;;;0.75;0.68;;;8.20;99.90;;;;;;4951730;28;20026;-84
2023/03/27 01:51:40;;;;;;;1.00;0.70;;;8.10;99.90;;;;;;4951312;29;20046;-85
2023/03/27 01:54:33;;;;;;;2.03;0.80;;;8.30;99.90;;;;;;4951144;28;20397;-85
2023/03/27 01:57:09;;;;;;;2.40;0.50;;;8.30;99.90;;;;;;4951828;28;20436;-85
2023/03/27 01:59:39;;;;;;;0.75;0.68;;;8.40;99.90;;;;;;4951560;28;20031;-85
2023/03/27 02:02:23;;;;;;;0.70;0.60;;;8.60;99.90;;;;;;4951658;28;20031;-85
2023/03/27 02:04:58;;;;;;;1.42;0.55;;;8.70;99.90;;;;;;4951698;28;20089;-85
2023/03/27 02:07:56;;;;;;;1.95;0.70;;;8.40;99.90;;;;;;4949899;28;20118;-84
2023/03/27 02:10:31;;;;;;;0.80;0.70;;;8.10;99.90;;;;;;4946018;29;20035;-84
2023/03/27 02:13:05;;;;;;;0.85;0.70;;;8.10;99.90;;;;;;4950649;28;20098;-85
2023/03/27 02:15:34;;;;;;;1.38;0.90;;;8.10;99.90;;;;;;4951180;28;20401;-85
2023/03/27 02:18:04;;;;;;;1.25;0.80;;;8.10;99.90;;;;;;4951659;28;20061;-85
2023/03/27 02:20:31;;;;;;;0.65;0.63;;;8.30;99.90;;;;;;4951402;28;20031;-84
2023/03/27 02:23:00;;;;;;;1.40;0.77;;;8.60;99.90;;;;;;4950759;28;20516;-85
2023/03/27 02:25:26;;;;;;;0.93;0.90;;;8.70;99.90;;;;;;4949626;28;20039;-85
2023/03/27 02:28:15;;;;;;;1.60;0.70;;;8.70;99.90;;;;;;4931862;29;20055;-84
2023/03/27 02:31:19;;;;;;;2.30;0.88;;;8.60;99.90;;;;;;5029644;28;20160;-85
2023/03/27 02:34:12;;;;;;;1.77;0.70;;;8.50;99.90;;;;;;5029974;28;20372;-84
2023/03/27 02:36:54;;;;;;;1.73;0.70;;;8.40;99.90;;;;;;5012921;28;20041;-85
2023/03/27 02:39:22;;;;;;;1.85;0.70;;;8.50;99.90;;;;;;5029720;28;20021;-85
2023/03/27 02:42:03;;;;;;;1.25;0.65;;;8.80;99.90;;;;;;5029551;28;20037;-85
2023/03/27 02:44:50;;;;;;;0.88;0.70;;;8.50;99.90;;;;;;5029397;28;20044;-85
2023/03/27 02:47:35;;;;;;;1.95;0.80;;;8.40;99.90;;;;;;5013251;28;20458;-84
2023/03/27 02:50:09;;;;;;;1.40;0.70;;;8.60;99.90;;;;;;5029666;28;20044;-85
2023/03/27 02:52:40;;;;;;;1.35;0.75;;;8.60;99.90;;;;;;5029450;28;20057;-85
2023/03/27 02:55:19;;;;;;;0.77;0.63;;;8.40;99.90;;;;;;5012824;28;20033;-85
2023/03/27 02:57:50;;;;;;;1.58;1.15;;;8.70;99.90;;;;;;5029358;28;20053;-84
2023/03/27 03:00:28;;;;;;;2.28;0.85;;;8.70;99.90;;;;;;5029797;28;20021;-85
2023/03/27 03:03:04;;;;;;;0.73;0.60;;;8.80;99.90;;;;;;5029667;28;20041;-85
2023/03/27 03:05:31;;;;;;;1.00;0.70;;;8.80;99.90;;;;;;5029010;28;20064;-84
2023/03/27 03:07:57;;;;;;;1.45;0.75;;;8.80;99.90;;;;;;4969537;28;20123;-84
2023/03/27 03:10:23;;;;;;;1.40;0.73;;;8.80;99.90;;;;;;4931898;28;20460;-84
2023/03/27 03:12:49;;;;;;;2.00;0.80;;;8.80;99.90;;;;;;4930639;29;20042;-85
2023/03/27 03:15:17;;;;;;;0.90;0.70;;;8.80;99.90;;;;;;4931978;29;20028;-84
2023/03/27 03:17:43;;;;;;;1.70;0.80;;;8.70;99.90;;;;;;4931733;29;20036;-84
2023/03/27 03:20:11;;;;;;;3.00;1.00;;;8.60;99.90;;;;;;4931657;29;20107;-84
2023/03/27 03:22:38;;;;;;;2.30;0.80;;;8.60;99.90;;;;;;4931643;29;20040;-84
2023/03/27 03:25:06;;;;;;;0.88;0.70;;;8.70;99.90;;;;;;4932790;29;20115;-84
2023/03/27 03:27:33;;;;;;;0.90;0.77;;;8.80;99.90;;;;;;4934597;28;20043;-84
2023/03/27 03:30:00;;;;;;;1.33;0.90;;;8.70;99.90;;;;;;4935075;28;20043;-85
2023/03/27 03:32:26;;;;;;;1.65;0.80;;;8.80;99.90;;;;;;4934511;29;20032;-85
2023/03/27 03:34:52;;;;;;;1.45;0.77;;;8.90;99.90;;;;;;4933462;29;20085;-84
2023/03/27 03:37:18;;;;;;;0.90;0.80;;;8.90;99.90;;;;;;4934778;28;20019;-85
2023/03/27 03:39:45;;;;;;;4.60;0.90;;;8.90;99.90;;;;;;4934836;28;20405;-85
2023/03/27 03:42:11;;;;;;;2.83;0.90;;;8.90;99.90;;;;;;4934595;29;20038;-84
2023/03/27 03:44:37;;;;;;;2.97;1.02;;;8.90;99.90;;;;;;4935697;29;20043;-85
2023/03/27 03:47:03;;;;;;;1.20;0.80;;;8.90;99.90;;;;;;4953552;28;20480;-85
2023/03/27 03:49:29;;;;;;;1.90;0.80;;;8.90;99.90;;;;;;4952279;28;20023;-85
2023/03/27 03:51:55;;;;;;;1.15;0.90;;;8.90;99.90;;;;;;4953983;28;20038;-85
2023/03/27 03:54:20;;;;;;;1.10;0.93;;;9.00;99.90;;;;;;4953690;28;20047;-85
2023/03/27 03:56:47;;;;;;;1.67;0.90;;;9.10;99.90;;;;;;4953635;28;20688;-85
2023/03/27 03:59:15;;;;;;;2.45;0.85;;;9.10;99.90;;;;;;4953967;28;20119;-84
2023/03/27 04:01:41;;;;;;;1.65;1.10;;;9.10;99.90;;;;;;4953492;28;20035;-85
2023/03/27 04:04:08;;;;;;;3.50;0.90;;;9.10;99.90;;;;;;4951893;29;20081;-85
2023/03/27 04:06:36;;;;;;;2.25;0.80;;;9.10;99.90;;;;;;4953156;28;20039;-85
2023/03/27 04:09:03;;;;;;;1.77;0.82;;;9.00;99.90;;;;;;4953195;28;20036;-85
2023/03/27 04:11:29;;;;;;;1.67;0.93;;;9.00;99.90;;;;;;4953426;28;20504;-84
2023/03/27 04:13:55;;;;;;;1.20;0.93;;;8.80;99.90;;;;;;4953645;28;20035;-85
2023/03/27 04:16:21;;;;;;;1.63;1.20;;;8.50;99.90;;;;;;4952193;28;20027;-85
2023/03/27 04:18:49;;;;;;;2.67;1.20;;;8.60;99.90;;;;;;4952999;28;20491;-85
2023/03/27 04:21:16;;;;;;;2.53;1.10;;;8.60;99.90;;;;;;4952051;28;20037;-85
2023/03/27 04:23:44;;;;;;;2.22;1.10;;;8.60;99.90;;;;;;4952015;29;20036;-85
2023/03/27 04:26:11;;;;;;;1.65;1.30;;;8.80;99.90;;;;;;4952739;28;20053;-85
2023/03/27 04:28:37;;;;;;;1.25;1.15;;;8.70;99.90;;;;;;4953634;28;20374;-84
2023/03/27 04:31:05;;;;;;;2.33;1.27;;;8.80;99.90;;;;;;4953044;28;20036;-85
2023/03/27 04:33:38;;;;;;;2.17;1.45;;;8.90;99.90;;;;;;4952864;28;20126;-85
2023/03/27 04:36:07;;;;;;;2.85;1.38;;;8.90;99.90;;;;;;4953098;28;20031;-85
2023/03/27 04:38:35;;;;;;;2.97;1.40;;;8.80;99.90;;;;;;4953307;28;20023;-85
2023/03/27 04:41:01;;;;;;;2.25;1.55;;;8.90;99.90;;;;;;4952959;28;20042;-85
2023/03/27 04:43:27;;;;;;;1.90;1.67;;;8.90;99.90;;;;;;4953087;29;20102;-85
2023/03/27 04:45:53;;;;;;;2.13;1.90;;;8.90;99.90;;;;;;4951573;28;20028;-85
2023/03/27 04:48:20;;;;;;;2.65;1.95;;;8.70;99.90;;;;;;4952802;28;20536;-85
2023/03/27 04:50:49;;;;;;;4.47;2.00;;;9.00;99.90;;;;;;4951747;29;20435;-85
2023/03/27 04:53:22;;;;;;;2.88;2.22;;;9.10;99.90;;;;;;4952760;28;20041;-85
2023/03/27 04:55:49;;;;;;;3.03;2.35;;;9.20;99.90;;;;;;4952849;28;20039;-85
2023/03/27 04:58:16;;;;;;;2.55;2.22;;;8.90;99.90;;;;;;4952938;28;20051;-85
2023/03/27 05:00:48;;;;;;;3.97;2.67;;;8.90;99.90;;;;;;4951664;29;20035;-85
2023/03/27 05:03:16;;;;;;;6.00;2.28;;;9.10;99.90;;;;;;4952381;28;20039;-85
2023/03/27 05:05:42;;;;;;;4.28;2.50;;;9.10;99.90;;;;;;4952677;28;20446;-85
2023/03/27 05:08:08;;;;;;;4.00;2.70;;;8.90;99.90;;;;;;4953192;28;20069;-85
2023/03/27 05:10:34;;;;;;;4.43;3.40;;;9.00;99.90;;;;;;4952712;28;20378;-84
2023/03/27 05:12:59;;;;;;;10.02;7.65;;;8.90;99.90;;;;;;4952321;28;20031;-85
2023/03/27 05:15:26;;;;;;;6.15;4.78;;;8.90;99.90;;;;;;4951411;29;20032;-85
2023/03/27 05:17:53;;;;;;;4.38;3.97;;;9.00;99.90;;;;;;4950945;29;20033;-85
2023/03/27 05:20:20;;;;;;;5.03;4.25;;;8.90;99.90;;;;;;4952546;28;20019;-85
2023/03/27 05:22:46;;;;;;;5.30;3.83;;;8.70;99.90;;;;;;4952714;28;20027;-85
2023/03/27 05:25:12;;;;;;;3.50;3.20;;;8.90;99.90;;;;;;4952055;28;20058;-85
2023/03/27 05:27:47;;;;;;;4.95;3.78;;;9.00;99.90;;;;;;4952347;28;20039;-85
2023/03/27 05:30:14;;;;;;;4.65;3.70;;;8.90;99.90;;;;;;4952486;28;20081;-85
2023/03/27 05:32:43;;;;;;;4.95;3.38;;;8.90;99.90;;;;;;4952278;28;20031;-86
2023/03/27 05:35:10;;;;;;;6.15;3.67;;;8.80;99.90;;;;;;4952602;28;20043;-84
2023/03/27 05:37:35;;;;;;;4.30;3.25;;;8.80;99.90;;;;;;4952048;28;20440;-85
2023/03/27 05:40:02;;;;;;;4.75;3.50;;;8.60;99.90;;;;;;4952422;28;20031;-84
2023/03/27 05:42:27;;;;;;;4.07;3.67;;;8.70;99.90;;;;;;4951938;28;20043;-85
2023/03/27 05:44:53;;;;;;;6.35;3.83;;;9.00;99.90;;;;;;4946424;29;20019;-85
2023/03/27 05:47:19;;;;;;;3.97;3.33;;;8.90;99.90;;;;;;4932243;29;20398;-85
2023/03/27 05:49:45;;;;;;;3.83;3.45;;;8.60;99.90;;;;;;4931749;29;20023;-84
2023/03/27 05:52:10;;;;;;;4.97;4.20;;;8.70;99.90;;;;;;4931327;29;20027;-85
2023/03/27 05:54:36;;;;;;;5.25;3.58;;;8.70;99.90;;;;;;4932936;29;20039;-85
2023/03/27 05:57:02;;;;;;;5.68;4.00;;;8.70;99.90;;;;;;4932628;29;20387;-85
2023/03/27 05:59:27;;;;;;;5.47;3.70;;;8.60;99.90;;;;;;4931195;29;20130;-85
2023/03/27 06:01:53;;;;;;;5.18;3.50;;;8.70;99.90;;;;;;4933001;29;20095;-84
2023/03/27 06:04:20;;;;;;;4.13;3.75;;;8.70;99.90;;;;;;4932829;29;20448;-85
2023/03/27 06:06:46;;;;;;;4.88;4.20;;;8.70;99.90;;;;;;4932745;29;20154;-85
2023/03/27 06:09:12;;;;;;;5.65;3.72;;;8.80;99.90;;;;;;4932737;29;20063;-84
2023/03/27 06:11:39;;;;;;;5.10;4.60;;;9.00;99.90;;;;;;4931369;29;20082;-85
2023/03/27 06:14:05;;;;;;;24.80;17.42;;;8.90;99.90;;;;;;4932680;29;20093;-85
2023/03/27 06:16:31;;;;;;;10.30;7.47;;;8.90;99.90;;;;;;4932483;29;20036;-85
2023/03/27 06:18:57;;;;;;;5.30;4.70;;;8.80;99.90;;;;;;4932479;29;20046;-85
2023/03/27 06:21:23;;;;;;;7.50;4.57;;;8.90;99.90;;;;;;4932716;29;20054;-85
2023/03/27 06:23:49;;;;;;;6.50;4.82;;;8.70;99.90;;;;;;4932496;29;20032;-85
2023/03/27 06:26:14;;;;;;;7.35;4.43;;;8.90;99.90;;;;;;4932124;28;20469;-85
2023/03/27 06:28:41;;;;;;;6.13;4.45;;;9.00;99.90;;;;;;4931019;29;20130;-84
2023/03/27 06:31:07;;;;;;;5.05;4.47;;;9.10;99.90;;;;;;4931280;29;20498;-84
2023/03/27 06:33:33;;;;;;;5.22;4.57;;;9.00;99.90;;;;;;4931646;29;20098;-86
2023/03/27 06:36:00;;;;;;;7.75;5.50;;;9.10;99.90;;;;;;4931746;29;20039;-85
2023/03/27 06:38:30;;;;;;;5.10;4.30;;;8.80;99.90;;;;;;4931987;29;20039;-85
2023/03/27 06:40:55;;;;;;;6.47;5.50;;;8.80;99.90;;;;;;4931870;29;20035;-85
2023/03/27 06:43:21;;;;;;;5.72;4.72;;;8.90;99.90;;;;;;4931652;29;20036;-85
2023/03/27 06:45:49;;;;;;;5.45;4.45;;;9.00;99.90;;;;;;4942714;29;20088;-86
2023/03/27 06:48:16;;;;;;;9.52;6.95;;;9.00;99.90;;;;;;4950577;28;20038;-85
2023/03/27 06:50:43;;;;;;;4.85;4.45;;;9.10;99.90;;;;;;4951383;28;20019;-84
2023/03/27 06:53:10;;;;;;;6.13;4.72;;;9.00;99.90;;;;;;4950686;28;20039;-85
2023/03/27 06:55:36;;;;;;;4.65;4.15;;;9.00;99.90;;;;;;4950730;28;20073;-85
2023/03/27 06:58:03;;;;;;;5.15;4.45;;;8.90;99.90;;;;;;4949668;28;20085;-86
2023/03/27 07:00:33;;;;;;;7.28;5.75;;;9.00;99.90;;;;;;4953820;28;20058;-85
2023/03/27 07:03:03;;;;;;;4.55;3.55;;;9.00;99.90;;;;;;4953431;28;20026;-85
2023/03/27 07:05:35;;;;;;;4.85;3.85;;;8.80;99.90;;;;;;4952000;28;20039;-85
2023/03/27 07:08:02;;;;;;;7.53;5.18;;;8.80;99.90;;;;;;4954268;28;20042;-85
2023/03/27 07:10:28;;;;;;;13.73;7.70;;;8.90;99.90;;;;;;4952835;28;20520;-84
2023/03/27 07:12:54;;;;;;;4.00;3.20;;;8.80;99.90;;;;;;4953967;28;20075;-85
2023/03/27 07:15:21;;;;;;;7.50;4.80;;;8.80;99.90;;;;;;4953829;28;20031;-85
2023/03/27 07:17:59;;;;;;;2.17;1.98;;;8.70;99.90;;;;;;4949810;28;20529;-85
2023/03/27 07:20:26;;;;;;;1.70;1.60;;;8.70;99.90;;;;;;4967307;28;20034;-85
2023/03/27 07:22:55;;;;;;;2.35;1.83;;;8.60;99.90;;;;;;4969870;28;20109;-86
2023/03/27 07:25:21;;;;;;;3.00;1.92;;;8.60;99.90;;;;;;4952402;29;20516;-85
2023/03/27 07:27:46;;;;;;;2.20;2.00;;;8.60;99.90;;;;;;4954488;28;20035;-85
2023/03/27 07:30:13;;;;;;;2.92;2.25;;;8.50;99.90;;;;;;4952912;29;20031;-85
2023/03/27 07:32:41;;;;;;;1.95;1.80;;;8.60;99.90;;;;;;4953700;28;20047;-85
2023/03/27 07:35:08;;;;;;;3.85;2.78;;;8.40;99.90;;;;;;4953636;28;20101;-84
2023/03/27 07:37:36;;;;;;;3.03;2.08;;;8.70;99.90;;;;;;4953443;28;20027;-85
2023/03/27 07:40:03;;;;;;;6.97;3.55;;;8.40;99.90;;;;;;4953956;28;20035;-87
2023/03/27 07:42:29;;;;;;;3.55;3.25;;;8.50;99.90;;;;;;4951954;28;20045;-85
2023/03/27 07:44:54;;;;;;;3.33;3.00;;;8.60;99.90;;;;;;4952296;28;20035;-84
2023/03/27 07:47:20;;;;;;;3.75;2.88;;;8.60;99.90;;;;;;4953431;28;20126;-84
2023/03/27 07:49:46;;;;;;;3.13;2.83;;;8.70;99.90;;;;;;4952642;28;20031;-84
2023/03/27 07:52:12;;;;;;;5.57;3.28;;;8.70;99.90;;;;;;4953669;29;20039;-85
2023/03/27 07:54:37;;;;;;;4.68;3.65;;;8.50;99.90;;;;;;4952798;29;20031;-84
2023/03/27 07:57:04;;;;;;;4.95;3.53;;;8.50;99.90;;;;;;4952065;28;20031;-84
2023/03/27 07:59:29;;;;;;;7.95;5.38;;;8.60;99.90;;;;;;4953517;28;20024;-84
2023/03/27 08:01:56;;;;;;;5.78;4.72;;;8.40;99.90;;;;;;4952032;28;20377;-87
2023/03/27 08:04:22;;;;;;;8.27;4.90;;;8.50;99.90;;;;;;4952675;28;20397;-85
2023/03/27 08:06:50;;;;;;;7.22;4.88;;;8.60;99.90;;;;;;4953610;28;20043;-85
2023/03/27 08:09:16;;;;;;;7.68;5.43;;;8.80;99.90;;;;;;4953836;28;20034;-86
2023/03/27 08:11:43;;;;;;;8.60;5.18;;;8.60;99.90;;;;;;4952164;28;20043;-85
2023/03/27 08:14:08;;;;;;;8.00;5.72;;;8.60;99.90;;;;;;4952408;28;20035;-85
2023/03/27 08:16:35;;;;;;;9.43;6.13;;;8.60;99.90;;;;;;4952819;28;20031;-85
2023/03/27 08:19:03;;;;;;;9.35;5.85;;;8.60;99.90;;;;;;4952959;28;20031;-86
2023/03/27 08:21:33;;;;;;;8.52;6.68;;;8.50;99.90;;;;;;4952047;28;20027;-87
2023/03/27 08:24:03;;;;;;;8.20;5.45;;;8.50;99.90;;;;;;4952737;28;20035;-85
2023/03/27 08:26:32;;;;;;;7.97;5.18;;;8.50;99.90;;;;;;4952153;28;20054;-85
2023/03/27 08:28:58;;;;;;;6.22;4.50;;;8.50;99.90;;;;;;4952461;28;20031;-88
2023/03/27 08:31:26;;;;;;;4.97;4.03;;;8.40;99.90;;;;;;4951076;28;20525;-84
2023/03/27 08:33:52;;;;;;;6.13;4.55;;;8.30;99.90;;;;;;4939234;28;20044;-86
2023/03/27 08:36:18;;;;;;;5.78;4.63;;;8.20;99.90;;;;;;4933555;28;20027;-86
2023/03/27 08:38:45;;;;;;;6.88;5.28;;;8.10;99.90;;;;;;4951830;29;20034;-86
2023/03/27 08:41:32;;;;;;;6.28;4.93;;;8.10;99.90;;;;;;4952892;28;20038;-86
2023/03/27 08:44:00;;;;;;;7.15;5.30;;;8.00;99.90;;;;;;4953404;28;20448;-95
2023/03/27 08:46:38;;;;;;;9.80;5.47;;;8.20;99.90;;;;;;4951577;29;20027;-85
2023/03/27 08:49:04;;;;;;;8.80;5.70;;;8.00;99.90;;;;;;4953048;28;20425;-87
2023/03/27 08:51:37;;;;;;;7.82;5.70;;;8.20;99.90;;;;;;4952797;28;20024;-87
2023/03/27 08:54:08;;;;;;;8.88;5.00;;;8.20;99.90;;;;;;4952509;28;20093;-86
2023/03/27 08:56:34;;;;;;;6.13;3.72;;;8.00;99.90;;;;;;4952806;28;20088;-86
2023/03/27 08:59:00;;;;;;;8.68;4.45;;;7.90;99.90;;;;;;4945776;28;20028;-87
2023/03/27 09:01:48;;;;;;;8.20;4.53;;;8.00;99.90;;;;;;4933788;28;20075;-87
2023/03/27 09:04:17;;;;;;;10.10;4.63;;;7.80;99.90;;;;;;4932126;28;20039;-86
2023/03/27 09:07:01;;;;;;;8.68;5.03;;;7.60;99.90;;;;;;4933775;28;20508;-87
2023/03/27 09:09:45;;;;;;;7.38;5.63;;;7.90;99.90;;;;;;4943462;28;20023;-87
2023/03/27 09:12:22;;;;;;;11.23;6.38;;;8.20;99.90;;;;;;4952501;28;20027;-86
2023/03/27 09:14:58;;;;;;;7.80;5.03;;;8.30;99.90;;;;;;4951225;29;20035;-86
2023/03/27 09:17:30;;;;;;;7.15;5.00;;;8.20;99.90;;;;;;4951971;28;20019;-88
2023/03/27 09:20:05;;;;;;;7.10;5.30;;;8.20;99.90;;;;;;4951783;28;20034;-87
2023/03/27 09:22:43;;;;;;;10.70;5.32;;;8.20;99.90;;;;;;4949585;28;20066;-86
2023/03/27 09:25:23;;;;;;;9.88;6.13;;;8.20;99.90;;;;;;4951440;28;20110;-86
2023/03/27 09:27:51;;;;;;;10.18;6.00;;;8.30;99.90;;;;;;4950908;29;20122;-87
2023/03/27 09:30:27;;;;;;;8.68;5.55;;;8.50;99.90;;;;;;4950299;28;20027;-85
2023/03/27 09:32:57;;;;;;;12.80;6.05;;;8.30;99.90;;;;;;4949960;28;20070;-86
2023/03/27 09:35:23;;;;;;;9.77;5.93;;;8.30;99.90;;;;;;4952444;28;20050;-87
2023/03/27 09:37:57;;;;;;;8.85;6.55;;;8.10;99.90;;;;;;4951767;28;20493;-86
2023/03/27 09:40:32;;;;;;;10.88;6.22;;;8.60;99.90;;;;;;4951226;28;20460;-88
2023/03/27 09:43:13;;;;;;;10.77;6.38;;;8.40;99.90;;;;;;4952832;28;20059;-89
2023/03/27 09:45:40;;;;;;;8.57;6.07;;;8.50;99.90;;;;;;4953114;28;20034;-90
2023/03/27 09:48:13;;;;;;;9.55;6.55;;;8.40;99.90;;;;;;4942541;28;20031;-90
2023/03/27 09:50:43;;;;;;;9.65;6.38;;;8.60;99.90;;;;;;4951666;28;20028;-89
2023/03/27 09:53:13;;;;;;;9.75;6.65;;;8.80;99.90;;;;;;4952175;28;20047;-90
2023/03/27 09:55:54;;;;;;;10.73;6.47;;;9.00;99.90;;;;;;4953322;28;20030;-88
2023/03/27 09:58:34;;;;;;;8.88;6.07;;;9.10;99.90;;;;;;4941754;29;20035;-87
2023/03/27 10:01:18;;;;;;;11.73;6.70;;;8.90;99.90;;;;;;4951865;28;20092;-88
2023/03/27 10:03:56;;;;;;;12.65;6.85;;;8.60;99.90;;;;;;4953222;28;20069;-88
2023/03/27 10:06:36;;;;;;;11.30;6.68;;;8.80;99.90;;;;;;4951403;29;20031;-87
2023/03/27 10:09:22;;;;;;;8.88;6.20;;;8.70;99.90;;;;;;4950301;29;20524;-87
2023/03/27 10:11:50;;;;;;;10.45;6.00;;;8.60;99.90;;;;;;4950033;28;20118;-86
2023/03/27 10:14:20;;;;;;;11.02;6.28;;;8.80;99.90;;;;;;4950793;28;20042;-87
2023/03/27 10:16:46;;;;;;;11.27;6.55;;;9.30;99.90;;;;;;4949448;28;20027;-86
2023/03/27 10:19:22;;;;;;;8.07;5.53;;;9.90;99.90;;;;;;4951638;28;20024;-86
2023/03/27 10:21:48;;;;;;;10.88;5.60;;;10.10;99.90;;;;;;4951065;28;20031;-86
2023/03/27 10:24:17;;;;;;;11.00;6.43;;;10.00;99.90;;;;;;4951265;28;20024;-88
2023/03/27 10:26:47;;;;;;;8.32;5.20;;;9.70;99.90;;;;;;4950983;28;20086;-88
2023/03/27 10:29:21;;;;;;;8.88;4.53;;;9.20;99.90;;;;;;4952473;28;20027;-88
2023/03/27 10:31:52;;;;;;;9.73;5.15;;;8.60;99.90;;;;;;4950443;28;20044;-88
2023/03/27 10:34:29;;;;;;;6.15;4.00;;;8.30;99.90;;;;;;4953630;28;20098;-89
2023/03/27 10:36:55;;;;;;;7.65;3.95;;;8.10;99.90;;;;;;4953880;28;20036;-88
2023/03/27 10:39:26;;;;;;;9.75;4.50;;;8.20;99.90;;;;;;4954041;28;20031;-87
2023/03/27 10:41:52;;;;;;;9.35;4.28;;;8.20;99.90;;;;;;4954926;28;20019;-86
2023/03/27 10:44:19;;;;;;;12.90;4.78;;;8.50;99.90;;;;;;4954861;28;20050;-92
2023/03/27 10:46:46;;;;;;;11.30;4.25;;;8.50;99.90;;;;;;4954492;29;20037;-90
2023/03/27 10:49:27;;;;;;;13.80;5.47;;;8.40;99.90;;;;;;4952966;28;20032;-86
2023/03/27 10:52:15;;;;;;;9.25;3.78;;;8.50;99.90;;;;;;4954393;28;20038;-87
2023/03/27 10:54:50;;;;;;;11.88;3.95;;;8.80;99.90;;;;;;4954151;28;20039;-88
2023/03/27 10:57:33;;;;;;;11.93;3.80;;;9.10;99.90;;;;;;4955447;28;20034;-87
2023/03/27 11:00:16;;;;;;;9.02;3.50;;;9.30;99.90;;;;;;4954196;28;20394;-86
2023/03/27 11:03:04;;;;;;;10.13;3.50;;;9.20;99.90;;;;;;4954338;28;20035;-86
2023/03/27 11:05:37;;;;;;;10.82;3.58;;;9.00;99.90;;;;;;4954125;28;20055;-87
2023/03/27 11:08:19;;;;;;;8.27;4.38;;;9.20;99.90;;;;;;4954811;28;20055;-93
2023/03/27 11:10:46;;;;;;;8.13;3.55;;;8.90;99.90;;;;;;4940638;29;20031;-88
2023/03/27 11:13:32;;;;;;;7.88;3.38;;;9.10;99.90;;;;;;4954058;28;20038;-87
2023/03/27 11:16:13;;;;;;;12.48;3.50;;;9.10;99.90;;;;;;4954634;28;20028;-88
2023/03/27 11:18:55;;;;;;;8.98;3.85;;;9.00;99.90;;;;;;4954055;28;20043;-89
2023/03/27 11:21:30;;;;;;;9.90;3.80;;;8.80;99.90;;;;;;4953510;28;20023;-87
2023/03/27 11:23:58;;;;;;;10.38;3.38;;;8.80;99.90;;;;;;4953321;28;20039;-86
2023/03/27 11:26:44;;;;;;;8.20;3.22;;;8.90;99.90;;;;;;4952283;28;21387;-86
2023/03/27 11:29:21;;;;;;;10.18;3.50;;;8.70;99.90;;;;;;4953572;28;20089;-87
2023/03/27 11:31:50;;;;;;;7.47;3.10;;;8.70;99.90;;;;;;4946778;28;20114;-86
2023/03/27 11:34:33;;;;;;;9.95;4.00;;;8.40;99.90;;;;;;4951421;28;20042;-86
2023/03/27 11:37:16;;;;;;;8.85;3.15;;;8.60;99.90;;;;;;4953571;28;20051;-86
2023/03/27 11:39:48;;;;;;;9.00;3.45;;;8.60;99.90;;;;;;4954105;28;20031;-87
2023/03/27 11:42:21;;;;;;;8.82;3.28;;;8.50;99.90;;;;;;4953448;28;20024;-86
2023/03/27 11:44:47;;;;;;;7.65;2.92;;;8.50;99.90;;;;;;4953363;28;20058;-87
2023/03/27 11:47:31;;;;;;;10.70;3.00;;;8.50;99.90;;;;;;4953178;28;20103;-85
2023/03/27 11:50:07;;;;;;;5.95;3.25;;;8.60;99.90;;;;;;4952597;28;20039;-87
2023/03/27 11:53:01;;;;;;;8.18;3.50;;;8.40;99.90;;;;;;4953663;28;20031;-86
2023/03/27 11:55:36;;;;;;;6.70;3.25;;;8.40;99.90;;;;;;4953789;28;20031;-86
2023/03/27 11:58:19;;;;;;;8.30;3.00;;;8.40;99.90;;;;;;4953595;28;20023;-86
2023/03/27 12:01:15;;;;;;;7.22;2.78;;;8.50;99.90;;;;;;4952120;28;20055;-87
2023/03/27 12:03:53;;;;;;;6.22;2.88;;;8.70;99.90;;;;;;4953228;28;20481;-86
2023/03/27 12:06:21;;;;;;;9.27;3.40;;;8.80;99.90;;;;;;4953427;28;20070;-86
2023/03/27 12:09:12;;;;;;;7.03;3.00;;;8.80;99.90;;;;;;4953533;28;20046;-87
2023/03/27 12:11:53;;;;;;;7.72;3.20;;;9.20;99.90;;;;;;4953619;28;20023;-86
2023/03/27 12:14:34;;;;;;;6.30;2.90;;;9.40;99.90;;;;;;4953149;28;20032;-86
2023/03/27 12:17:21;;;;;;;5.65;3.00;;;9.40;99.90;;;;;;4953237;28;20035;-86
2023/03/27 12:19:50;;;;;;;8.73;2.90;;;9.20;99.90;;;;;;4952048;28;20420;-87
2023/03/27 12:22:28;;;;;;;8.02;2.80;;;9.30;99.90;;;;;;4953041;28;20035;-87
2023/03/27 12:25:14;;;;;;;10.48;3.13;;;9.40;99.90;;;;;;4953100;28;20038;-86
2023/03/27 12:28:12;;;;;;;9.80;4.43;;;9.40;99.90;;;;;;4953348;28;20090;-87
2023/03/27 12:30:47;;;;;;;7.13;3.20;;;9.30;99.90;;;;;;4952152;28;20040;-86
2023/03/27 12:33:34;;;;;;;11.13;4.03;;;9.60;99.90;;;;;;4952772;28;20034;-86
2023/03/27 12:36:04;;;;;;;9.40;3.85;;;9.50;99.90;;;;;;4952694;28;20085;-87
2023/03/27 12:38:42;;;;;;;9.60;5.25;;;9.70;99.90;;;;;;4952925;28;20517;-86
2023/03/27 12:41:09;;;;;;;10.95;5.00;;;9.70;99.90;;;;;;4951784;28;20046;-86
2023/03/27 12:43:40;;;;;;;10.48;4.95;;;9.80;99.90;;;;;;4952691;28;20031;-86
2023/03/27 12:46:23;;;;;;;16.83;6.78;;;9.80;99.90;;;;;;4952514;28;20494;-86
2023/03/27 12:49:19;;;;;;;10.07;4.35;;;9.90;99.90;;;;;;4953051;28;20038;-86
2023/03/27 12:51:52;;;;;;;7.40;3.00;;;10.00;99.90;;;;;;4952701;28;20089;-87
2023/03/27 12:54:35;;;;;;;7.03;3.10;;;10.00;99.90;;;;;;4952693;28;20066;-87
2023/03/27 12:57:21;;;;;;;5.68;2.50;;;10.10;99.90;;;;;;4952572;28;20031;-86
2023/03/27 13:00:07;;;;;;;7.45;2.83;;;10.20;99.90;;;;;;4952404;28;20094;-86
2023/03/27 13:03:10;;;;;;;8.30;3.25;;;10.10;99.90;;;;;;4952821;28;20035;-86
2023/03/27 13:05:57;;;;;;;9.95;2.80;;;9.90;99.90;;;;;;4952753;28;20035;-86
2023/03/27 13:08:51;;;;;;;8.20;3.03;;;10.10;99.90;;;;;;4952572;28;20093;-86
2023/03/27 13:11:30;;;;;;;13.02;4.90;;;10.00;99.90;;;;;;5051083;28;20132;-86
2023/03/27 13:14:06;;;;;;;8.52;3.50;;;10.10;99.90;;;;;;5050850;28;20032;-86
2023/03/27 13:16:50;;;;;;;8.40;3.17;;;10.30;99.90;;;;;;5050774;28;20033;-86
2023/03/27 13:19:29;;;;;;;7.50;3.20;;;10.50;99.90;;;;;;5050931;28;20086;-86
2023/03/27 13:22:11;;;;;;;5.68;3.05;;;10.10;99.90;;;;;;5050813;28;20472;-86